Time;durP1;ratioP1;P1;durP2;ratioP2;P2;SDS_P1;SDS_P2;PMS_P1;PMS_P2;Temp;Humidity;BMP_temperature;BMP_pressure;BME280_temperature;BME280_humidity;BME280_pressure;Samples;Min_cycle;Max_cycle;Signal;HPM_P1;HPM_P2
2023/03/24 00:01:05;;;;;;;4.35;2.08;;;11.10;99.90;;;;;;5068311;28;20078;-65
2023/03/24 00:03:32;;;;;;;7.72;2.30;;;11.10;99.90;;;;;;5069097;28;20045;-65
2023/03/24 00:06:03;;;;;;;8.02;2.15;;;11.10;99.90;;;;;;5050021;28;20398;-65
2023/03/24 00:08:34;;;;;;;14.18;2.42;;;11.00;99.90;;;;;;5050754;28;20041;-65
2023/03/24 00:11:05;;;;;;;;;;;11.10;99.90;;;;;;5052097;28;20429;-66
2023/03/24 00:13:36;;;;;;;5.45;1.92;;;11.10;99.90;;;;;;5068590;28;19925;-65
2023/03/24 00:16:07;;;;;;;4.40;1.42;;;11.10;99.90;;;;;;5068959;28;20176;-65
2023/03/24 00:18:33;;;;;;;5.93;2.33;;;11.10;99.90;;;;;;5050808;28;20040;-66
2023/03/24 00:20:59;;;;;;;6.40;2.33;;;11.10;99.90;;;;;;5050848;28;20048;-65
2023/03/24 00:23:32;;;;;;;7.53;2.90;;;11.10;99.90;;;;;;5067949;28;20044;-65
2023/03/24 00:26:04;;;;;;;8.70;2.80;;;11.10;99.90;;;;;;5068238;28;20072;-66
2023/03/24 00:28:32;;;;;;;11.30;2.80;;;11.10;99.90;;;;;;5050161;28;20082;-66
2023/03/24 00:30:59;;;;;;;7.65;3.28;;;11.10;99.90;;;;;;5045449;28;20041;-65
2023/03/24 00:33:24;;;;;;;5.25;2.70;;;11.00;99.90;;;;;;5050486;28;20570;-66
2023/03/24 00:35:51;;;;;;;9.95;2.95;;;11.10;99.90;;;;;;5050780;28;20112;-65
2023/03/24 00:38:18;;;;;;;7.63;3.42;;;11.10;99.90;;;;;;5068022;28;20115;-65
2023/03/24 00:40:45;;;;;;;5.45;1.85;;;11.00;99.90;;;;;;5068794;28;20059;-66
2023/03/24 00:43:12;;;;;;;8.88;2.72;;;11.10;99.90;;;;;;5050050;28;20037;-65
2023/03/24 00:45:45;;;;;;;7.72;2.33;;;11.10;99.90;;;;;;5069251;28;20052;-65
2023/03/24 00:48:16;;;;;;;6.80;2.15;;;11.00;99.90;;;;;;5065317;28;20048;-65
2023/03/24 00:50:47;;;;;;;5.30;1.98;;;11.10;99.90;;;;;;5039962;28;20410;-65
2023/03/24 00:53:17;;;;;;;9.93;2.67;;;11.10;99.90;;;;;;5067841;28;20044;-65
2023/03/24 00:55:46;;;;;;;4.28;1.52;;;11.10;99.90;;;;;;5068663;28;20044;-66
2023/03/24 00:58:22;;;;;;;4.50;1.97;;;11.00;99.90;;;;;;5068359;28;20044;-65
2023/03/24 01:00:51;;;;;;;5.82;2.25;;;11.00;99.90;;;;;;5036696;28;20048;-65
2023/03/24 01:03:20;;;;;;;5.30;1.85;;;11.00;99.90;;;;;;5048313;28;20045;-65
2023/03/24 01:05:47;;;;;;;6.53;2.25;;;11.10;99.90;;;;;;5051649;28;20068;-65
2023/03/24 01:08:19;;;;;;;6.88;2.47;;;11.10;99.90;;;;;;5044045;28;20040;-65
2023/03/24 01:10:51;;;;;;;12.40;2.95;;;11.10;99.90;;;;;;5049818;28;20089;-65
2023/03/24 01:13:19;;;;;;;3.20;1.38;;;11.10;99.90;;;;;;5067591;28;20048;-65
2023/03/24 01:15:46;;;;;;;7.80;2.45;;;11.10;99.90;;;;;;5068431;28;20044;-65
2023/03/24 01:18:13;;;;;;;6.30;2.45;;;11.00;99.90;;;;;;5062104;28;20391;-65
2023/03/24 01:20:40;;;;;;;4.03;1.48;;;11.10;99.90;;;;;;5025094;28;20545;-65
2023/03/24 01:23:06;;;;;;;5.00;2.15;;;11.10;99.90;;;;;;5049595;28;20052;-65
2023/03/24 01:25:35;;;;;;;2.65;1.83;;;11.00;99.90;;;;;;5067676;28;20487;-65
2023/03/24 01:28:01;;;;;;;2.53;1.42;;;11.00;99.90;;;;;;5067856;28;20048;-65
2023/03/24 01:30:28;;;;;;;3.63;1.52;;;11.00;99.90;;;;;;5048383;28;20116;-65
2023/03/24 01:32:55;;;;;;;4.03;2.22;;;11.00;99.90;;;;;;5067476;28;20418;-65
2023/03/24 01:35:22;;;;;;;11.27;2.45;;;11.00;99.90;;;;;;5060335;28;20079;-65
2023/03/24 01:37:48;;;;;;;6.75;2.55;;;11.00;99.90;;;;;;5063930;28;20041;-64
2023/03/24 01:40:23;;;;;;;2.78;1.73;;;11.00;99.90;;;;;;5066691;28;20105;-65
2023/03/24 01:42:50;;;;;;;4.40;1.75;;;11.00;99.90;;;;;;5067349;28;20045;-65
2023/03/24 01:45:49;;;;;;;5.75;2.20;;;11.00;99.90;;;;;;5047645;28;20052;-65
2023/03/24 01:48:23;;;;;;;10.98;2.47;;;11.00;99.90;;;;;;5066399;28;20059;-65
2023/03/24 01:51:09;;;;;;;5.43;2.22;;;11.00;99.90;;;;;;5054726;28;20052;-65
2023/03/24 01:53:37;;;;;;;5.10;2.22;;;11.00;99.90;;;;;;5067029;28;20109;-65
2023/03/24 01:56:06;;;;;;;4.40;2.20;;;11.00;99.90;;;;;;5049554;28;20491;-65
2023/03/24 01:58:33;;;;;;;5.07;1.45;;;11.00;99.90;;;;;;5066832;28;20044;-65
2023/03/24 02:00:59;;;;;;;4.82;1.65;;;11.00;99.90;;;;;;5066478;28;20044;-65
2023/03/24 02:03:25;;;;;;;5.97;2.10;;;11.00;99.90;;;;;;5049383;28;20059;-65
2023/03/24 02:05:53;;;;;;;3.38;1.90;;;11.00;99.90;;;;;;5067107;28;20045;-65
2023/03/24 02:08:33;;;;;;;3.80;2.25;;;11.00;99.90;;;;;;5067062;28;20101;-65
2023/03/24 02:11:00;;;;;;;3.05;1.77;;;11.00;99.90;;;;;;5065443;28;20593;-65
2023/03/24 02:13:26;;;;;;;8.43;2.58;;;11.00;99.90;;;;;;5047350;28;20470;-65
2023/03/24 02:16:12;;;;;;;6.35;1.80;;;11.00;99.90;;;;;;5067250;28;20079;-65
2023/03/24 02:18:59;;;;;;;3.85;2.45;;;11.00;99.90;;;;;;5066018;28;20398;-65
2023/03/24 02:21:59;;;;;;;7.97;1.73;;;11.00;99.90;;;;;;5053119;28;20099;-65
2023/03/24 02:25:01;;;;;;;3.72;1.73;;;11.00;99.90;;;;;;5066667;28;20044;-65
2023/03/24 02:28:02;;;;;;;5.25;1.92;;;11.00;99.90;;;;;;5047991;28;20513;-66
2023/03/24 02:30:46;;;;;;;3.90;1.52;;;11.10;99.90;;;;;;5046252;28;20059;-65
2023/03/24 02:33:29;;;;;;;4.38;2.10;;;11.00;99.90;;;;;;5062164;28;20041;-66
2023/03/24 02:36:22;;;;;;;5.72;2.20;;;11.00;99.90;;;;;;5059788;28;20048;-65
2023/03/24 02:39:09;;;;;;;3.83;1.50;;;11.10;99.90;;;;;;5037131;28;20547;-66
2023/03/24 02:41:52;;;;;;;6.15;2.00;;;11.10;99.90;;;;;;5066022;28;20056;-65
2023/03/24 02:44:24;;;;;;;4.65;1.83;;;11.10;99.90;;;;;;5065690;28;20045;-65
2023/03/24 02:47:21;;;;;;;4.72;1.95;;;11.10;99.90;;;;;;5066331;28;20052;-65
2023/03/24 02:50:02;;;;;;;2.15;1.10;;;11.10;99.90;;;;;;5066254;28;20060;-65
2023/03/24 02:52:42;;;;;;;6.45;2.10;;;11.10;99.90;;;;;;5048411;28;20093;-65
2023/03/24 02:55:32;;;;;;;5.25;2.10;;;11.20;99.90;;;;;;5048927;28;20383;-65
2023/03/24 02:58:10;;;;;;;4.90;3.10;;;11.10;99.90;;;;;;5066409;28;20044;-65
2023/03/24 03:00:47;;;;;;;6.57;2.10;;;11.20;99.90;;;;;;5054894;28;20604;-65
2023/03/24 03:03:40;;;;;;;4.60;1.52;;;11.20;99.90;;;;;;5066823;28;20044;-65
2023/03/24 03:06:27;;;;;;;1.92;1.70;;;11.20;99.90;;;;;;5048517;28;20394;-65
2023/03/24 03:08:56;;;;;;;4.75;1.65;;;11.20;99.90;;;;;;5066287;28;20040;-65
2023/03/24 03:11:21;;;;;;;4.65;1.98;;;11.20;99.90;;;;;;5065427;28;20518;-65
2023/03/24 03:13:56;;;;;;;4.35;2.08;;;11.20;99.90;;;;;;5048130;28;20092;-65
2023/03/24 03:16:37;;;;;;;3.95;2.10;;;11.20;99.90;;;;;;5052956;28;20055;-65
2023/03/24 03:19:08;;;;;;;2.28;1.45;;;11.30;99.90;;;;;;5066178;28;20048;-65
2023/03/24 03:21:40;;;;;;;6.47;2.63;;;11.20;99.90;;;;;;5047759;28;20052;-65
2023/03/24 03:24:38;;;;;;;5.43;1.90;;;11.30;99.90;;;;;;5048166;28;20094;-66
2023/03/24 03:27:13;;;;;;;4.88;2.03;;;11.30;99.90;;;;;;5034069;28;20056;-66
2023/03/24 03:29:45;;;;;;;8.35;2.50;;;11.30;99.90;;;;;;5066122;28;20048;-65
2023/03/24 03:32:17;;;;;;;3.63;1.88;;;11.30;99.90;;;;;;5065070;28;20600;-65
2023/03/24 03:35:08;;;;;;;3.15;1.77;;;11.30;99.90;;;;;;5047842;28;20036;-65
2023/03/24 03:37:49;;;;;;;6.80;2.15;;;11.30;99.90;;;;;;5065712;28;20462;-66
2023/03/24 03:40:30;;;;;;;4.65;2.10;;;11.30;99.90;;;;;;5052955;28;20110;-65
2023/03/24 03:42:56;;;;;;;3.80;1.58;;;11.40;99.90;;;;;;5065456;28;20071;-66
2023/03/24 03:45:23;;;;;;;5.03;1.60;;;11.40;99.90;;;;;;5065451;28;20131;-65
2023/03/24 03:47:50;;;;;;;3.95;1.70;;;11.40;99.90;;;;;;5048290;28;20553;-65
2023/03/24 03:50:16;;;;;;;4.50;1.50;;;11.40;99.90;;;;;;5065740;28;20083;-64
2023/03/24 03:52:43;;;;;;;12.38;2.22;;;11.40;99.90;;;;;;5065159;28;20150;-64
2023/03/24 03:55:11;;;;;;;3.80;1.35;;;11.50;99.90;;;;;;5048146;28;20111;-64
2023/03/24 03:57:37;;;;;;;3.38;1.48;;;11.40;99.90;;;;;;5065866;28;20040;-64
2023/03/24 04:00:07;;;;;;;4.95;1.77;;;11.40;99.90;;;;;;5052111;28;20747;-64
2023/03/24 04:02:56;;;;;;;2.05;0.98;;;11.40;99.90;;;;;;5050070;28;20068;-65
2023/03/24 04:05:56;;;;;;;0.63;0.63;;;11.50;99.90;;;;;;5063327;28;20051;-66
2023/03/24 04:09:06;;;;;;;0.88;0.40;;;11.50;99.90;;;;;;5069638;28;20541;-66
2023/03/24 04:11:51;;;;;;;;;;;11.30;99.90;;;;;;5039881;28;20044;-66
2023/03/24 04:14:41;;;;;;;1.25;0.50;;;11.20;99.90;;;;;;5051006;28;19960;-66
2023/03/24 04:17:27;;;;;;;1.35;0.52;;;11.10;99.90;;;;;;5069651;28;20540;-66
2023/03/24 04:20:27;;;;;;;1.58;0.77;;;11.10;99.90;;;;;;5056337;28;20051;-66
2023/03/24 04:23:08;;;;;;;0.30;0.30;;;11.00;99.90;;;;;;5004917;28;20060;-66
2023/03/24 04:25:48;;;;;;;3.05;0.77;;;11.10;99.90;;;;;;5068134;28;20531;-66
2023/03/24 04:28:57;;;;;;;0.93;0.60;;;11.00;99.90;;;;;;5067714;28;20553;-66
2023/03/24 04:31:36;;;;;;;4.53;0.80;;;11.00;99.90;;;;;;5016003;28;20055;-66
2023/03/24 04:34:12;;;;;;;1.52;0.60;;;11.00;99.90;;;;;;5069164;28;20119;-66
2023/03/24 04:36:49;;;;;;;1.83;0.90;;;10.90;99.90;;;;;;5049968;28;20050;-66
2023/03/24 04:39:24;;;;;;;3.97;0.73;;;10.90;99.90;;;;;;5050922;28;20463;-66
2023/03/24 04:41:51;;;;;;;2.58;0.70;;;10.90;99.90;;;;;;5054306;28;20572;-66
2023/03/24 04:44:20;;;;;;;6.80;1.08;;;10.80;99.90;;;;;;5068543;28;20433;-66
2023/03/24 04:46:52;;;;;;;1.00;0.50;;;10.80;99.90;;;;;;5068579;28;20110;-66
2023/03/24 04:49:24;;;;;;;2.15;0.93;;;10.70;99.90;;;;;;5067360;28;20048;-66
2023/03/24 04:51:50;;;;;;;7.68;1.27;;;10.70;99.90;;;;;;5066497;28;20060;-66
2023/03/24 04:54:17;;;;;;;6.75;1.35;;;10.70;99.90;;;;;;5050561;28;20048;-66
2023/03/24 04:56:47;;;;;;;0.20;0.20;;;10.60;99.90;;;;;;5067996;28;20506;-66
2023/03/24 04:59:14;;;;;;;5.18;1.23;;;10.60;99.90;;;;;;5068109;28;20044;-66
2023/03/24 05:01:48;;;;;;;8.57;1.33;;;10.50;99.90;;;;;;5048668;28;20115;-66
2023/03/24 05:04:18;;;;;;;10.23;0.90;;;10.40;99.90;;;;;;5068623;28;20048;-66
2023/03/24 05:06:45;;;;;;;;;;;10.30;99.90;;;;;;5068263;28;20037;-66
2023/03/24 05:09:13;;;;;;;0.98;0.50;;;10.30;99.90;;;;;;5068391;28;19920;-66
2023/03/24 05:11:39;;;;;;;4.38;0.70;;;10.20;99.90;;;;;;5067000;28;20058;-66
2023/03/24 05:14:05;;;;;;;4.18;1.10;;;10.10;99.90;;;;;;5068020;28;20056;-66
2023/03/24 05:16:31;;;;;;;5.25;1.13;;;10.10;99.90;;;;;;5067980;28;20032;-66
2023/03/24 05:18:56;;;;;;;3.67;1.30;;;10.00;99.90;;;;;;5067672;28;20056;-66
2023/03/24 05:21:22;;;;;;;3.90;0.47;;;10.00;99.90;;;;;;5066451;28;20037;-66
2023/03/24 05:23:48;;;;;;;6.57;1.05;;;10.00;99.90;;;;;;5049283;28;20045;-66
2023/03/24 05:26:14;;;;;;;3.53;0.60;;;9.90;99.90;;;;;;5049874;28;20086;-66
2023/03/24 05:28:40;;;;;;;12.82;1.38;;;9.80;99.90;;;;;;5049093;28;20048;-66
2023/03/24 05:31:05;;;;;;;2.17;0.85;;;9.80;99.90;;;;;;5048685;28;20048;-66
2023/03/24 05:33:31;;;;;;;0.75;0.50;;;9.70;99.90;;;;;;5067727;28;20049;-66
2023/03/24 05:35:57;;;;;;;5.07;1.17;;;9.70;99.90;;;;;;5067196;28;20125;-66
2023/03/24 05:38:22;;;;;;;6.95;1.52;;;9.60;99.90;;;;;;5049914;28;20063;-66
2023/03/24 05:40:48;;;;;;;2.60;0.60;;;9.60;99.90;;;;;;5065847;28;20040;-66
2023/03/24 05:43:14;;;;;;;7.63;1.27;;;9.60;99.90;;;;;;5032946;28;20141;-66
2023/03/24 05:45:40;;;;;;;13.02;2.33;;;9.60;99.90;;;;;;5045140;28;20052;-66
2023/03/24 05:48:06;;;;;;;10.57;1.98;;;9.50;99.90;;;;;;5029921;28;20044;-66
2023/03/24 05:50:32;;;;;;;11.98;1.70;;;9.60;99.90;;;;;;5045571;28;20037;-66
2023/03/24 05:52:58;;;;;;;4.63;1.05;;;9.50;99.90;;;;;;5046984;28;20499;-66
2023/03/24 05:55:24;;;;;;;11.70;1.90;;;9.50;99.90;;;;;;5029242;28;20044;-66
2023/03/24 05:57:50;;;;;;;17.90;1.67;;;9.60;99.90;;;;;;5046616;28;20044;-66
2023/03/24 06:00:16;;;;;;;6.88;1.13;;;9.60;99.90;;;;;;5046410;28;20037;-66
2023/03/24 06:02:43;;;;;;;12.27;1.60;;;9.70;99.90;;;;;;5044904;28;20052;-65
2023/03/24 06:05:10;;;;;;;14.48;2.17;;;9.70;99.90;;;;;;5047666;28;20561;-66
2023/03/24 06:07:41;;;;;;;17.15;1.55;;;9.70;99.90;;;;;;5046725;28;20041;-66
2023/03/24 06:10:10;;;;;;;10.80;2.28;;;9.80;99.90;;;;;;5047281;28;20049;-66
2023/03/24 06:12:36;;;;;;;5.90;0.95;;;9.80;99.90;;;;;;5044973;28;20052;-66
2023/03/24 06:15:03;;;;;;;10.50;1.83;;;9.80;99.90;;;;;;5046847;28;20091;-66
2023/03/24 06:17:30;;;;;;;17.70;2.63;;;9.90;99.90;;;;;;5045697;28;20048;-66
2023/03/24 06:20:01;;;;;;;8.95;1.80;;;9.90;99.90;;;;;;5044548;28;20526;-66
2023/03/24 06:22:28;;;;;;;15.32;1.98;;;9.90;99.90;;;;;;5045532;28;20041;-66
2023/03/24 06:24:55;;;;;;;5.85;1.13;;;9.90;99.90;;;;;;5033565;28;20045;-66
2023/03/24 06:27:24;;;;;;;7.18;1.90;;;9.90;99.90;;;;;;5045898;28;20465;-66
2023/03/24 06:29:51;;;;;;;17.52;2.10;;;9.90;99.90;;;;;;5046387;28;20053;-66
2023/03/24 06:32:20;;;;;;;10.25;1.73;;;10.00;99.90;;;;;;5046306;28;20095;-66
2023/03/24 06:34:46;;;;;;;9.45;1.52;;;10.00;99.90;;;;;;5044692;28;20091;-66
2023/03/24 06:37:13;;;;;;;15.50;2.70;;;10.00;99.90;;;;;;5045077;28;20048;-66
2023/03/24 06:39:39;;;;;;;5.90;0.90;;;10.00;99.90;;;;;;5046895;28;20577;-66
2023/03/24 06:42:06;;;;;;;15.65;2.20;;;10.00;99.90;;;;;;5045227;28;20767;-66
2023/03/24 06:44:31;;;;;;;11.65;1.42;;;10.00;99.90;;;;;;5044848;28;20059;-66
2023/03/24 06:46:57;;;;;;;16.23;2.33;;;10.00;99.90;;;;;;5044877;28;20060;-66
2023/03/24 06:49:23;;;;;;;7.38;1.45;;;10.10;99.90;;;;;;5046884;28;20037;-66
2023/03/24 06:51:49;;;;;;;5.63;1.10;;;10.10;99.90;;;;;;5046031;28;20044;-66
2023/03/24 06:54:15;;;;;;;5.28;1.15;;;10.10;99.90;;;;;;5045851;28;20120;-66
2023/03/24 06:56:41;;;;;;;4.35;1.10;;;10.10;99.90;;;;;;5046736;28;20076;-66
2023/03/24 06:59:07;;;;;;;6.90;1.15;;;10.10;99.90;;;;;;5045702;28;20053;-66
2023/03/24 07:01:34;;;;;;;8.95;1.60;;;10.10;99.90;;;;;;5045633;28;20040;-66
2023/03/24 07:04:01;;;;;;;7.88;1.58;;;10.10;99.90;;;;;;5038768;28;20044;-66
2023/03/24 07:06:28;;;;;;;17.92;2.13;;;10.10;99.90;;;;;;5045541;28;20063;-65
2023/03/24 07:08:55;;;;;;;16.77;2.53;;;10.10;99.90;;;;;;5045407;28;20073;-66
2023/03/24 07:11:20;;;;;;;25.60;3.40;;;10.10;99.90;;;;;;5046140;28;20051;-66
2023/03/24 07:13:46;;;;;;;13.57;2.25;;;10.10;99.90;;;;;;5039741;28;20425;-66
2023/03/24 07:16:12;;;;;;;12.82;2.47;;;10.00;99.90;;;;;;5021801;28;20320;-66
2023/03/24 07:18:38;;;;;;;8.80;1.90;;;10.00;99.90;;;;;;5038535;28;20041;-65
2023/03/24 07:21:04;;;;;;;14.73;1.80;;;10.10;99.90;;;;;;5035833;28;20033;-66
2023/03/24 07:23:31;;;;;;;16.13;3.05;;;10.10;99.90;;;;;;5046137;28;20079;-66
2023/03/24 07:25:57;;;;;;;8.45;1.10;;;10.10;99.90;;;;;;5045574;28;20045;-66
2023/03/24 07:28:23;;;;;;;16.13;1.98;;;10.10;99.90;;;;;;5046128;28;20107;-66
2023/03/24 07:30:48;;;;;;;4.43;1.15;;;10.20;99.90;;;;;;5046320;28;20053;-66
2023/03/24 07:33:14;;;;;;;13.70;2.33;;;10.20;99.90;;;;;;5048586;28;20045;-66
2023/03/24 07:35:40;;;;;;;14.82;2.15;;;10.20;99.90;;;;;;5049017;28;20131;-66
2023/03/24 07:38:07;;;;;;;9.65;1.70;;;10.20;99.90;;;;;;5048992;28;20037;-66
2023/03/24 07:40:34;;;;;;;19.30;3.75;;;10.20;99.90;;;;;;5048648;28;20041;-66
2023/03/24 07:43:03;;;;;;;16.45;3.63;;;10.20;99.90;;;;;;5049306;28;20049;-66
2023/03/24 07:45:28;;;;;;;12.82;2.72;;;10.30;99.90;;;;;;5063514;28;20052;-66
2023/03/24 07:47:56;;;;;;;17.85;2.40;;;10.30;99.90;;;;;;5051035;28;20407;-65
2023/03/24 07:50:22;;;;;;;16.35;2.10;;;10.30;99.90;;;;;;5051812;28;20144;-66
2023/03/24 07:52:48;;;;;;;16.85;2.42;;;10.30;99.90;;;;;;5069597;28;20694;-66
2023/03/24 07:55:14;;;;;;;12.07;2.47;;;10.30;99.90;;;;;;5067673;28;20040;-65
2023/03/24 07:57:50;;;;;;;15.88;2.40;;;10.40;99.90;;;;;;5052424;28;20124;-65
2023/03/24 08:00:16;;;;;;;10.82;2.28;;;10.40;99.90;;;;;;5038962;28;20482;-65
2023/03/24 08:02:44;;;;;;;13.45;2.20;;;10.40;99.90;;;;;;5038284;28;20056;-66
2023/03/24 08:05:13;;;;;;;11.90;2.08;;;10.40;99.90;;;;;;5063704;28;20041;-65
2023/03/24 08:07:42;;;;;;;16.77;2.05;;;10.40;99.90;;;;;;5066117;28;20563;-66
2023/03/24 08:10:13;;;;;;;5.97;1.20;;;10.40;99.90;;;;;;5048185;28;20490;-65
2023/03/24 08:12:39;;;;;;;6.68;1.23;;;10.40;99.90;;;;;;5049335;28;20056;-66
2023/03/24 08:15:06;;;;;;;11.57;2.22;;;10.40;99.90;;;;;;5068505;28;20075;-65
2023/03/24 08:17:33;;;;;;;20.52;3.25;;;10.40;99.90;;;;;;5062281;28;20044;-66
2023/03/24 08:19:58;;;;;;;18.48;3.38;;;10.40;99.90;;;;;;5050844;28;20052;-66
2023/03/24 08:22:25;;;;;;;20.10;3.30;;;10.50;99.90;;;;;;5068857;28;20044;-66
2023/03/24 08:24:50;;;;;;;20.33;2.63;;;10.60;99.90;;;;;;5050993;28;20099;-65
2023/03/24 08:27:16;;;;;;;17.48;2.80;;;10.60;99.90;;;;;;5068955;28;20498;-66
2023/03/24 08:29:42;;;;;;;19.33;4.47;;;10.70;99.90;;;;;;5068332;28;20402;-65
2023/03/24 08:32:08;;;;;;;22.50;3.85;;;10.70;99.90;;;;;;5068794;28;20048;-65
2023/03/24 08:34:34;;;;;;;22.92;3.10;;;10.90;99.90;;;;;;5068452;28;20403;-65
2023/03/24 08:37:00;;;;;;;21.80;2.58;;;10.90;99.90;;;;;;5068647;28;20048;-66
2023/03/24 08:39:26;;;;;;;16.52;2.10;;;11.00;99.90;;;;;;5033720;28;20044;-65
2023/03/24 08:41:53;;;;;;;20.98;2.60;;;11.00;99.90;;;;;;5068667;28;20047;-65
2023/03/24 08:44:19;;;;;;;9.73;1.15;;;11.00;99.90;;;;;;5067622;28;20091;-65
2023/03/24 08:46:45;;;;;;;8.38;1.50;;;11.00;99.90;;;;;;5036619;28;20479;-65
2023/03/24 08:49:11;;;;;;;19.88;2.35;;;11.10;99.90;;;;;;5063780;28;20040;-65
2023/03/24 08:51:37;;;;;;;21.25;3.42;;;11.20;99.90;;;;;;5067680;28;20044;-66
2023/03/24 08:54:03;;;;;;;16.73;3.20;;;11.40;99.90;;;;;;5050243;28;20495;-65
2023/03/24 08:56:29;;;;;;;20.92;3.92;;;11.50;99.90;;;;;;5068085;28;20495;-65
2023/03/24 08:58:56;;;;;;;14.27;1.83;;;11.50;99.90;;;;;;5068576;28;20044;-65
2023/03/24 09:01:23;;;;;;;16.20;2.60;;;11.60;99.90;;;;;;5067397;28;20426;-65
2023/03/24 09:03:49;;;;;;;28.05;3.58;;;11.80;99.90;;;;;;5068148;28;20437;-65
2023/03/24 09:06:15;;;;;;;14.82;2.80;;;12.00;99.90;;;;;;5068047;28;20088;-65
2023/03/24 09:08:41;;;;;;;18.05;2.67;;;12.30;99.90;;;;;;5067613;28;20045;-65
2023/03/24 09:11:14;;;;;;;5.57;1.65;;;12.50;99.90;;;;;;5067783;28;20098;-65
2023/03/24 09:13:40;;;;;;;11.68;2.20;;;12.50;93.30;;;;;;5068036;28;20130;-65
2023/03/24 09:16:05;;;;;;;20.05;3.17;;;12.30;94.40;;;;;;5033500;28;20044;-65
2023/03/24 09:18:32;;;;;;;15.32;2.45;;;12.20;96.90;;;;;;5050021;28;20128;-65
2023/03/24 09:20:58;;;;;;;7.50;1.15;;;12.00;97.90;;;;;;5067154;28;20087;-65
2023/03/24 09:23:24;;;;;;;9.75;1.85;;;11.80;96.60;;;;;;5067996;28;20066;-65
2023/03/24 09:25:51;;;;;;;7.35;1.88;;;11.60;99.60;;;;;;5049386;28;20044;-65
2023/03/24 09:28:17;;;;;;;9.68;1.52;;;11.40;96.30;;;;;;5067813;28;20033;-65
2023/03/24 09:30:43;;;;;;;6.25;1.20;;;11.30;97.50;;;;;;5067777;28;20036;-65
2023/03/24 09:33:09;;;;;;;4.82;1.05;;;11.30;96.20;;;;;;5057236;28;20145;-65
2023/03/24 09:35:35;;;;;;;9.65;1.88;;;11.20;93.00;;;;;;5049149;28;20041;-65
2023/03/24 09:38:01;;;;;;;13.30;2.42;;;11.10;95.40;;;;;;5049599;28;20040;-65
2023/03/24 09:40:34;;;;;;;9.05;1.42;;;11.00;95.00;;;;;;5032755;28;20411;-65
2023/03/24 09:43:13;;;;;;;10.45;2.45;;;11.00;95.90;;;;;;5066879;28;20484;-65
2023/03/24 09:45:55;;;;;;;16.40;3.40;;;11.00;93.90;;;;;;5067612;28;20061;-65
2023/03/24 09:49:01;;;;;;;7.93;1.33;;;11.20;95.90;;;;;;5048843;28;20511;-65
2023/03/24 09:51:31;;;;;;;2.50;0.75;;;11.20;91.70;;;;;;4933169;28;20557;-65
2023/03/24 09:54:24;;;;;;;12.48;2.65;;;11.20;94.30;;;;;;4950393;28;20110;-65
2023/03/24 09:56:51;;;;;;;16.38;2.42;;;11.10;93.70;;;;;;5035169;28;20078;-65
2023/03/24 09:59:36;;;;;;;8.13;1.88;;;11.10;93.00;;;;;;5067114;28;20102;-65
2023/03/24 10:02:14;;;;;;;10.18;2.10;;;11.00;94.20;;;;;;5067005;28;20073;-65
2023/03/24 10:04:40;;;;;;;12.57;1.75;;;10.90;92.30;;;;;;5066193;28;20445;-65
2023/03/24 10:07:36;;;;;;;3.78;0.73;;;11.00;90.70;;;;;;5067133;28;20044;-65
2023/03/24 10:10:03;;;;;;;6.03;1.08;;;11.30;92.40;;;;;;5048967;28;20032;-65
2023/03/24 10:12:39;;;;;;;18.15;2.80;;;11.40;90.90;;;;;;5048610;28;20063;-64
2023/03/24 10:15:48;;;;;;;16.95;2.58;;;11.70;91.50;;;;;;5048839;28;20080;-64
2023/03/24 10:18:52;;;;;;;8.65;1.58;;;12.10;89.40;;;;;;5014453;28;20929;-64
2023/03/24 10:21:26;;;;;;;14.13;2.33;;;12.40;83.10;;;;;;4981344;28;20043;-64
2023/03/24 10:24:17;;;;;;;7.82;1.95;;;12.60;82.50;;;;;;5059240;28;20457;-64
2023/03/24 10:27:07;;;;;;;18.40;2.75;;;12.80;84.10;;;;;;5066189;28;20103;-64
2023/03/24 10:29:35;;;;;;;13.05;2.03;;;12.80;75.50;;;;;;5046228;28;20037;-64
2023/03/24 10:32:24;;;;;;;15.60;2.85;;;13.00;78.00;;;;;;5066448;28;20036;-64
2023/03/24 10:35:00;;;;;;;10.88;1.90;;;13.10;75.30;;;;;;5065302;28;20399;-64
2023/03/24 10:37:30;;;;;;;8.68;1.85;;;13.10;78.40;;;;;;5057867;28;20056;-64
2023/03/24 10:39:56;;;;;;;8.40;1.23;;;12.80;72.70;;;;;;5065867;28;20304;-64
2023/03/24 10:42:27;;;;;;;13.40;2.25;;;12.70;77.00;;;;;;5065468;28;20509;-64
2023/03/24 10:44:53;;;;;;;2.58;1.00;;;12.50;76.00;;;;;;5065626;28;20053;-63
2023/03/24 10:47:25;;;;;;;2.30;0.80;;;12.30;69.80;;;;;;5046457;28;20036;-64
2023/03/24 10:49:57;;;;;;;12.80;2.67;;;12.20;72.10;;;;;;5062953;28;20036;-64
2023/03/24 10:52:26;;;;;;;13.05;2.33;;;12.00;70.60;;;;;;5048872;28;20094;-64
2023/03/24 10:54:57;;;;;;;13.38;1.92;;;11.90;70.60;;;;;;5049637;28;20451;-64
2023/03/24 10:57:25;;;;;;;8.93;1.92;;;11.90;74.30;;;;;;5028265;28;20052;-64
2023/03/24 10:59:59;;;;;;;9.07;1.80;;;11.90;76.70;;;;;;5059416;28;20050;-64
2023/03/24 11:02:32;;;;;;;21.08;3.20;;;11.70;72.50;;;;;;5064968;28;20495;-63
2023/03/24 11:05:09;;;;;;;3.65;0.77;;;11.60;71.80;;;;;;5059262;28;20033;-64
2023/03/24 11:07:37;;;;;;;1.50;0.63;;;11.50;71.70;;;;;;5068304;28;20101;-64
2023/03/24 11:10:15;;;;;;;0.70;0.68;;;11.60;70.60;;;;;;5051931;28;20036;-63
2023/03/24 11:12:53;;;;;;;7.45;1.48;;;11.70;72.30;;;;;;5064992;28;20574;-64
2023/03/24 11:15:29;;;;;;;7.85;1.83;;;11.80;65.50;;;;;;5052230;28;20080;-64
2023/03/24 11:18:00;;;;;;;6.43;0.80;;;11.90;66.70;;;;;;5069584;28;20128;-63
2023/03/24 11:20:42;;;;;;;7.30;1.83;;;11.90;71.70;;;;;;5063575;28;20548;-64
2023/03/24 11:23:16;;;;;;;12.75;2.65;;;11.90;73.30;;;;;;5067028;28;20053;-64
2023/03/24 11:25:46;;;;;;;4.68;1.40;;;12.10;72.50;;;;;;5057436;28;20079;-64
2023/03/24 11:28:17;;;;;;;9.18;0.88;;;12.20;72.90;;;;;;5069893;28;20040;-64
2023/03/24 11:30:45;;;;;;;13.93;2.53;;;12.50;69.60;;;;;;5050704;28;20259;-63
2023/03/24 11:33:33;;;;;;;5.45;1.13;;;12.50;64.90;;;;;;5068699;28;20044;-63
2023/03/24 11:36:01;;;;;;;5.88;0.90;;;12.60;66.10;;;;;;5051657;28;20037;-63
2023/03/24 11:38:33;;;;;;;14.57;3.15;;;12.70;67.40;;;;;;5065130;28;20097;-64
2023/03/24 11:41:03;;;;;;;7.70;1.63;;;13.00;68.90;;;;;;5065345;28;20036;-63
2023/03/24 11:43:29;;;;;;;;;;;13.10;67.50;;;;;;5047166;28;20048;-63
2023/03/24 11:46:16;;;;;;;12.60;1.90;;;13.30;65.90;;;;;;5067824;28;19928;-63
2023/03/24 11:48:56;;;;;;;3.85;1.23;;;13.50;66.90;;;;;;5069069;28;20056;-63
2023/03/24 11:51:33;;;;;;;14.73;1.80;;;13.60;61.70;;;;;;5059539;28;20044;-64
2023/03/24 11:54:02;;;;;;;17.45;2.97;;;13.80;68.40;;;;;;5067343;28;20088;-63
2023/03/24 11:56:41;;;;;;;13.63;1.58;;;13.90;58.20;;;;;;5067881;28;20080;-63
2023/03/24 11:59:56;;;;;;;12.87;2.20;;;13.80;56.90;;;;;;5051838;28;20139;-63
2023/03/24 12:02:40;;;;;;;16.73;2.72;;;13.40;57.30;;;;;;4996732;28;20296;-63
2023/03/24 12:05:20;;;;;;;13.02;2.67;;;13.30;59.50;;;;;;5050236;28;20121;-63
2023/03/24 12:08:04;;;;;;;6.30;1.55;;;13.50;58.70;;;;;;5065550;28;20137;-63
2023/03/24 12:10:30;;;;;;;6.13;1.42;;;13.70;54.10;;;;;;5066561;28;20083;-63
2023/03/24 12:13:15;;;;;;;18.98;3.45;;;13.80;53.70;;;;;;5044047;28;20068;-63
2023/03/24 12:16:11;;;;;;;11.40;1.70;;;13.70;49.20;;;;;;5061201;28;20044;-63
2023/03/24 12:18:43;;;;;;;19.10;2.67;;;13.60;52.90;;;;;;5065976;28;20141;-63
2023/03/24 12:21:39;;;;;;;18.42;3.13;;;13.60;57.10;;;;;;5068018;28;20045;-63
2023/03/24 12:24:42;;;;;;;12.45;1.92;;;13.80;57.70;;;;;;5067235;28;20044;-63
2023/03/24 12:27:23;;;;;;;16.90;2.15;;;13.80;50.80;;;;;;5037986;28;20057;-63
2023/03/24 12:30:22;;;;;;;11.20;2.47;;;13.60;46.50;;;;;;5066231;28;20445;-63
2023/03/24 12:33:02;;;;;;;7.40;1.75;;;13.30;43.70;;;;;;5023289;28;20056;-63
2023/03/24 12:35:33;;;;;;;15.05;2.03;;;13.20;44.40;;;;;;5048038;28;20076;-63
2023/03/24 12:38:10;;;;;;;7.53;1.83;;;13.20;43.90;;;;;;5067670;28;20052;-63
2023/03/24 12:40:41;;;;;;;10.90;1.73;;;13.30;47.00;;;;;;5068226;28;20044;-63
2023/03/24 12:43:31;;;;;;;9.23;1.90;;;13.10;46.60;;;;;;5068378;28;20408;-63
2023/03/24 12:46:01;;;;;;;4.75;0.95;;;13.00;49.90;;;;;;5057569;28;20064;-63
2023/03/24 12:49:01;;;;;;;12.00;2.42;;;12.80;48.30;;;;;;5067651;28;20177;-63
2023/03/24 12:51:49;;;;;;;21.90;3.28;;;12.70;51.70;;;;;;5068477;28;20037;-63
2023/03/24 12:54:35;;;;;;;7.30;1.40;;;12.90;55.40;;;;;;5056701;28;20048;-63
2023/03/24 12:57:06;;;;;;;12.13;2.05;;;13.10;52.30;;;;;;5067924;28;20055;-63
2023/03/24 13:00:05;;;;;;;8.75;2.10;;;13.00;53.20;;;;;;5069012;28;20471;-63
2023/03/24 13:03:19;;;;;;;17.17;2.33;;;12.90;51.90;;;;;;5044673;28;20060;-63
2023/03/24 13:05:50;;;;;;;5.95;1.33;;;13.10;52.30;;;;;;5041317;28;20258;-62
2023/03/24 13:08:28;;;;;;;14.20;2.60;;;13.40;53.20;;;;;;5068721;28;20464;-63
2023/03/24 13:11:01;;;;;;;12.75;2.47;;;13.60;53.50;;;;;;5067695;28;20036;-63
2023/03/24 13:13:44;;;;;;;7.47;2.13;;;13.80;54.00;;;;;;5050027;28;20505;-62
2023/03/24 13:16:19;;;;;;;12.88;1.92;;;13.80;48.20;;;;;;5068310;28;20079;-63